sensor_id;sensor_type;location;lat;lon;timestamp;P1;durP1;ratioP1;P2;durP2;ratioP2
68507;SDS011;55510;49.560;19.090;2023-03-30T00:01:15;16.83;;;8.57;;
68507;SDS011;55510;49.560;19.090;2023-03-30T00:04:16;15.88;;;8.48;;
68507;SDS011;55510;49.560;19.090;2023-03-30T00:07:17;16.30;;;6.65;;
68507;SDS011;55510;49.560;19.090;2023-03-30T00:10:18;19.63;;;6.73;;
68507;SDS011;55510;49.560;19.090;2023-03-30T00:13:20;20.65;;;9.23;;
68507;SDS011;55510;49.560;19.090;2023-03-30T00:16:20;17.92;;;8.07;;
68507;SDS011;55510;49.560;19.090;2023-03-30T00:19:22;9.87;;;5.00;;
68507;SDS011;55510;49.560;19.090;2023-03-30T00:22:22;11.48;;;5.82;;
68507;SDS011;55510;49.560;19.090;2023-03-30T00:25:23;12.67;;;6.80;;
68507;SDS011;55510;49.560;19.090;2023-03-30T00:28:24;17.58;;;7.03;;
68507;SDS011;55510;49.560;19.090;2023-03-30T00:31:26;12.32;;;6.53;;
68507;SDS011;55510;49.560;19.090;2023-03-30T00:34:26;12.00;;;5.67;;
68507;SDS011;55510;49.560;19.090;2023-03-30T00:37:28;10.52;;;4.80;;
68507;SDS011;55510;49.560;19.090;2023-03-30T00:40:29;11.93;;;4.73;;
68507;SDS011;55510;49.560;19.090;2023-03-30T00:43:32;14.98;;;6.40;;
68507;SDS011;55510;49.560;19.090;2023-03-30T00:46:32;16.92;;;7.20;;
68507;SDS011;55510;49.560;19.090;2023-03-30T00:49:33;14.87;;;6.87;;
68507;SDS011;55510;49.560;19.090;2023-03-30T00:52:34;20.63;;;7.18;;
68507;SDS011;55510;49.560;19.090;2023-03-30T00:55:37;22.60;;;9.40;;
68507;SDS011;55510;49.560;19.090;2023-03-30T00:58:40;23.27;;;9.30;;
68507;SDS011;55510;49.560;19.090;2023-03-30T01:01:42;18.37;;;7.40;;
68507;SDS011;55510;49.560;19.090;2023-03-30T01:04:50;25.27;;;8.80;;
68507;SDS011;55510;49.560;19.090;2023-03-30T01:07:54;23.00;;;7.40;;
68507;SDS011;55510;49.560;19.090;2023-03-30T01:10:57;15.50;;;5.20;;
68507;SDS011;55510;49.560;19.090;2023-03-30T01:14:04;12.90;;;6.13;;
68507;SDS011;55510;49.560;19.090;2023-03-30T01:24:12;9.10;;;4.60;;
68507;SDS011;55510;49.560;19.090;2023-03-30T01:27:20;11.15;;;5.18;;
68507;SDS011;55510;49.560;19.090;2023-03-30T01:33:57;11.90;;;5.30;;
68507;SDS011;55510;49.560;19.090;2023-03-30T01:37:32;11.60;;;4.75;;
68507;SDS011;55510;49.560;19.090;2023-03-30T01:44:19;13.35;;;7.47;;
68507;SDS011;55510;49.560;19.090;2023-03-30T01:51:00;26.87;;;14.80;;
68507;SDS011;55510;49.560;19.090;2023-03-30T01:54:09;23.88;;;13.68;;
68507;SDS011;55510;49.560;19.090;2023-03-30T01:57:17;26.50;;;13.55;;
68507;SDS011;55510;49.560;19.090;2023-03-30T02:00:25;20.80;;;11.80;;
68507;SDS011;55510;49.560;19.090;2023-03-30T02:03:28;14.57;;;8.60;;
68507;SDS011;55510;49.560;19.090;2023-03-30T02:06:37;16.30;;;8.57;;
68507;SDS011;55510;49.560;19.090;2023-03-30T02:09:44;18.00;;;9.00;;
68507;SDS011;55510;49.560;19.090;2023-03-30T02:12:48;16.65;;;8.40;;
68507;SDS011;55510;49.560;19.090;2023-03-30T02:15:52;14.98;;;7.47;;
68507;SDS011;55510;49.560;19.090;2023-03-30T02:18:59;14.87;;;7.63;;
68507;SDS011;55510;49.560;19.090;2023-03-30T02:22:00;11.63;;;5.60;;
68507;SDS011;55510;49.560;19.090;2023-03-30T02:25:01;9.98;;;4.80;;
68507;SDS011;55510;49.560;19.090;2023-03-30T02:28:02;10.60;;;4.60;;
68507;SDS011;55510;49.560;19.090;2023-03-30T02:31:05;8.37;;;3.93;;
68507;SDS011;55510;49.560;19.090;2023-03-30T14:15:48;13.05;;;5.25;;
68507;SDS011;55510;49.560;19.090;2023-03-30T14:18:50;11.75;;;4.60;;
68507;SDS011;55510;49.560;19.090;2023-03-30T14:21:53;10.82;;;4.18;;
68507;SDS011;55510;49.560;19.090;2023-03-30T14:24:59;11.23;;;3.53;;
68507;SDS011;55510;49.560;19.090;2023-03-30T14:28:02;7.35;;;2.20;;
68507;SDS011;55510;49.560;19.090;2023-03-30T14:31:18;8.10;;;3.20;;
68507;SDS011;55510;49.560;19.090;2023-03-30T14:34:27;12.45;;;3.97;;
68507;SDS011;55510;49.560;19.090;2023-03-30T14:37:29;23.58;;;9.32;;
68507;SDS011;55510;49.560;19.090;2023-03-30T14:40:30;17.90;;;7.67;;
68507;SDS011;55510;49.560;19.090;2023-03-30T14:43:39;15.05;;;4.90;;
68507;SDS011;55510;49.560;19.090;2023-03-30T14:46:41;14.02;;;5.07;;
68507;SDS011;55510;49.560;19.090;2023-03-30T14:49:46;13.85;;;5.93;;
68507;SDS011;55510;49.560;19.090;2023-03-30T14:52:48;8.43;;;4.55;;
68507;SDS011;55510;49.560;19.090;2023-03-30T14:55:50;9.70;;;5.27;;
68507;SDS011;55510;49.560;19.090;2023-03-30T14:58:51;12.32;;;6.95;;
68507;SDS011;55510;49.560;19.090;2023-03-30T15:01:54;8.73;;;5.22;;
68507;SDS011;55510;49.560;19.090;2023-03-30T15:04:56;8.48;;;3.63;;
68507;SDS011;55510;49.560;19.090;2023-03-30T15:07:58;10.63;;;4.03;;
68507;SDS011;55510;49.560;19.090;2023-03-30T15:11:11;12.77;;;5.60;;
68507;SDS011;55510;49.560;19.090;2023-03-30T15:14:14;13.70;;;5.70;;
68507;SDS011;55510;49.560;19.090;2023-03-30T15:17:19;14.32;;;6.60;;
68507;SDS011;55510;49.560;19.090;2023-03-30T15:20:24;16.83;;;10.70;;
68507;SDS011;55510;49.560;19.090;2023-03-30T15:23:36;14.75;;;7.35;;
68507;SDS011;55510;49.560;19.090;2023-03-30T15:26:42;29.50;;;17.03;;
68507;SDS011;55510;49.560;19.090;2023-03-30T15:29:46;21.48;;;10.88;;
68507;SDS011;55510;49.560;19.090;2023-03-30T15:32:47;20.60;;;9.25;;
68507;SDS011;55510;49.560;19.090;2023-03-30T15:35:53;33.22;;;14.80;;
68507;SDS011;55510;49.560;19.090;2023-03-30T15:38:55;44.97;;;19.05;;
68507;SDS011;55510;49.560;19.090;2023-03-30T15:42:01;20.67;;;9.90;;
68507;SDS011;55510;49.560;19.090;2023-03-30T15:45:10;27.17;;;12.68;;
68507;SDS011;55510;49.560;19.090;2023-03-30T15:48:13;33.88;;;22.80;;
68507;SDS011;55510;49.560;19.090;2023-03-30T15:51:25;17.67;;;9.30;;
68507;SDS011;55510;49.560;19.090;2023-03-30T15:57:40;24.87;;;10.80;;
68507;SDS011;55510;49.560;19.090;2023-03-30T16:00:43;40.60;;;18.10;;
68507;SDS011;55510;49.560;19.090;2023-03-30T16:03:56;25.65;;;11.40;;
68507;SDS011;55510;49.560;19.090;2023-03-30T16:07:00;26.50;;;11.85;;
68507;SDS011;55510;49.560;19.090;2023-03-30T16:10:01;26.45;;;11.48;;
68507;SDS011;55510;49.560;19.090;2023-03-30T16:13:02;19.10;;;9.97;;
68507;SDS011;55510;49.560;19.090;2023-03-30T16:16:03;14.68;;;7.90;;
68507;SDS011;55510;49.560;19.090;2023-03-30T16:19:08;18.75;;;11.48;;
68507;SDS011;55510;49.560;19.090;2023-03-30T16:22:14;17.73;;;12.20;;
68507;SDS011;55510;49.560;19.090;2023-03-30T16:25:15;15.70;;;9.63;;
68507;SDS011;55510;49.560;19.090;2023-03-30T16:28:17;22.85;;;12.98;;
68507;SDS011;55510;49.560;19.090;2023-03-30T16:31:19;21.27;;;9.40;;
68507;SDS011;55510;49.560;19.090;2023-03-30T16:34:22;13.33;;;6.70;;
68507;SDS011;55510;49.560;19.090;2023-03-30T16:37:23;14.63;;;7.40;;
68507;SDS011;55510;49.560;19.090;2023-03-30T16:43:29;14.23;;;7.50;;
68507;SDS011;55510;49.560;19.090;2023-03-30T16:46:30;12.63;;;7.90;;
68507;SDS011;55510;49.560;19.090;2023-03-30T16:49:30;13.77;;;8.47;;
68507;SDS011;55510;49.560;19.090;2023-03-30T16:52:31;20.73;;;11.00;;
68507;SDS011;55510;49.560;19.090;2023-03-30T16:55:32;23.07;;;13.33;;
68507;SDS011;55510;49.560;19.090;2023-03-30T16:58:33;20.30;;;11.15;;
68507;SDS011;55510;49.560;19.090;2023-03-30T17:01:34;23.30;;;10.27;;
68507;SDS011;55510;49.560;19.090;2023-03-30T17:04:36;21.77;;;9.20;;
68507;SDS011;55510;49.560;19.090;2023-03-30T17:07:36;36.55;;;16.70;;
68507;SDS011;55510;49.560;19.090;2023-03-30T17:10:38;33.53;;;15.07;;
68507;SDS011;55510;49.560;19.090;2023-03-30T17:13:40;18.93;;;11.83;;
68507;SDS011;55510;49.560;19.090;2023-03-30T17:16:41;21.17;;;11.88;;
68507;SDS011;55510;49.560;19.090;2023-03-30T17:19:42;28.38;;;13.90;;
68507;SDS011;55510;49.560;19.090;2023-03-30T17:22:43;24.57;;;13.97;;
68507;SDS011;55510;49.560;19.090;2023-03-30T17:25:44;22.52;;;11.77;;
68507;SDS011;55510;49.560;19.090;2023-03-30T17:28:45;22.13;;;11.43;;
68507;SDS011;55510;49.560;19.090;2023-03-30T17:31:46;25.05;;;10.50;;
68507;SDS011;55510;49.560;19.090;2023-03-30T17:34:47;29.00;;;11.97;;
68507;SDS011;55510;49.560;19.090;2023-03-30T17:37:47;21.23;;;9.88;;
68507;SDS011;55510;49.560;19.090;2023-03-30T17:40:48;31.47;;;11.43;;
68507;SDS011;55510;49.560;19.090;2023-03-30T17:43:49;24.38;;;11.82;;
68507;SDS011;55510;49.560;19.090;2023-03-30T17:46:50;24.40;;;11.90;;
68507;SDS011;55510;49.560;19.090;2023-03-30T17:49:51;28.33;;;12.50;;
68507;SDS011;55510;49.560;19.090;2023-03-30T17:52:55;30.58;;;15.35;;
68507;SDS011;55510;49.560;19.090;2023-03-30T17:55:56;26.95;;;12.38;;
68507;SDS011;55510;49.560;19.090;2023-03-30T17:58:57;19.83;;;10.57;;
68507;SDS011;55510;49.560;19.090;2023-03-30T18:01:58;27.20;;;11.65;;
68507;SDS011;55510;49.560;19.090;2023-03-30T18:04:59;17.30;;;8.40;;
68507;SDS011;55510;49.560;19.090;2023-03-30T18:08:00;13.53;;;6.63;;
68507;SDS011;55510;49.560;19.090;2023-03-30T18:11:01;21.30;;;10.82;;
68507;SDS011;55510;49.560;19.090;2023-03-30T18:14:03;19.00;;;11.02;;
68507;SDS011;55510;49.560;19.090;2023-03-30T18:17:03;19.83;;;12.17;;
68507;SDS011;55510;49.560;19.090;2023-03-30T18:20:10;18.07;;;9.50;;
68507;SDS011;55510;49.560;19.090;2023-03-30T18:23:16;19.98;;;8.70;;
68507;SDS011;55510;49.560;19.090;2023-03-30T18:26:17;22.02;;;8.45;;
68507;SDS011;55510;49.560;19.090;2023-03-30T18:29:18;18.77;;;8.13;;
68507;SDS011;55510;49.560;19.090;2023-03-30T18:32:19;13.23;;;7.10;;
68507;SDS011;55510;49.560;19.090;2023-03-30T18:35:20;17.07;;;8.30;;
68507;SDS011;55510;49.560;19.090;2023-03-30T18:38:22;29.60;;;13.23;;
68507;SDS011;55510;49.560;19.090;2023-03-30T18:41:24;22.98;;;11.52;;
68507;SDS011;55510;49.560;19.090;2023-03-30T18:44:25;20.77;;;8.67;;
68507;SDS011;55510;49.560;19.090;2023-03-30T18:47:27;20.65;;;9.90;;
68507;SDS011;55510;49.560;19.090;2023-03-30T18:53:37;20.25;;;9.45;;
68507;SDS011;55510;49.560;19.090;2023-03-30T18:56:38;23.93;;;10.07;;
68507;SDS011;55510;49.560;19.090;2023-03-30T18:59:39;19.95;;;9.65;;
68507;SDS011;55510;49.560;19.090;2023-03-30T19:02:39;18.57;;;9.47;;
68507;SDS011;55510;49.560;19.090;2023-03-30T19:05:40;22.55;;;11.90;;
68507;SDS011;55510;49.560;19.090;2023-03-30T19:08:42;24.07;;;12.47;;
68507;SDS011;55510;49.560;19.090;2023-03-30T19:11:42;31.50;;;14.33;;
68507;SDS011;55510;49.560;19.090;2023-03-30T19:14:43;30.67;;;14.93;;
68507;SDS011;55510;49.560;19.090;2023-03-30T19:17:44;31.67;;;14.43;;
68507;SDS011;55510;49.560;19.090;2023-03-30T19:20:45;40.35;;;19.52;;
68507;SDS011;55510;49.560;19.090;2023-03-30T19:23:49;41.37;;;18.47;;
68507;SDS011;55510;49.560;19.090;2023-03-30T19:26:50;46.33;;;19.63;;
68507;SDS011;55510;49.560;19.090;2023-03-30T19:29:50;23.70;;;11.43;;
68507;SDS011;55510;49.560;19.090;2023-03-30T19:32:55;20.10;;;9.03;;
68507;SDS011;55510;49.560;19.090;2023-03-30T19:35:57;14.80;;;7.85;;
68507;SDS011;55510;49.560;19.090;2023-03-30T19:38:57;30.37;;;12.20;;
68507;SDS011;55510;49.560;19.090;2023-03-30T19:41:58;22.15;;;10.10;;
68507;SDS011;55510;49.560;19.090;2023-03-30T19:44:59;33.13;;;14.87;;
68507;SDS011;55510;49.560;19.090;2023-03-30T19:48:03;30.58;;;14.13;;
68507;SDS011;55510;49.560;19.090;2023-03-30T19:51:04;27.63;;;14.98;;
68507;SDS011;55510;49.560;19.090;2023-03-30T19:54:08;26.77;;;15.70;;
68507;SDS011;55510;49.560;19.090;2023-03-30T19:57:09;27.33;;;14.87;;
68507;SDS011;55510;49.560;19.090;2023-03-30T20:00:12;32.47;;;18.35;;
68507;SDS011;55510;49.560;19.090;2023-03-30T20:03:15;65.68;;;24.85;;
68507;SDS011;55510;49.560;19.090;2023-03-30T20:06:16;63.30;;;26.52;;
68507;SDS011;55510;49.560;19.090;2023-03-30T20:09:16;58.80;;;22.50;;
68507;SDS011;55510;49.560;19.090;2023-03-30T20:12:19;61.92;;;25.35;;
68507;SDS011;55510;49.560;19.090;2023-03-30T20:15:20;54.83;;;23.30;;
68507;SDS011;55510;49.560;19.090;2023-03-30T20:18:22;50.50;;;20.70;;
68507;SDS011;55510;49.560;19.090;2023-03-30T20:21:24;46.63;;;19.57;;
68507;SDS011;55510;49.560;19.090;2023-03-30T20:24:25;54.35;;;20.38;;
68507;SDS011;55510;49.560;19.090;2023-03-30T20:27:26;58.80;;;20.37;;
68507;SDS011;55510;49.560;19.090;2023-03-30T20:30:27;65.75;;;24.02;;
68507;SDS011;55510;49.560;19.090;2023-03-30T20:33:27;60.43;;;21.47;;
68507;SDS011;55510;49.560;19.090;2023-03-30T20:36:35;48.08;;;19.45;;
68507;SDS011;55510;49.560;19.090;2023-03-30T20:39:35;39.30;;;18.27;;
68507;SDS011;55510;49.560;19.090;2023-03-30T20:42:36;30.23;;;12.27;;
68507;SDS011;55510;49.560;19.090;2023-03-30T20:45:43;21.87;;;12.47;;
68507;SDS011;55510;49.560;19.090;2023-03-30T20:48:47;22.47;;;11.17;;
68507;SDS011;55510;49.560;19.090;2023-03-30T20:51:53;20.25;;;11.80;;
68507;SDS011;55510;49.560;19.090;2023-03-30T20:54:54;24.80;;;12.90;;
68507;SDS011;55510;49.560;19.090;2023-03-30T20:57:55;49.80;;;18.95;;
68507;SDS011;55510;49.560;19.090;2023-03-30T21:00:56;37.97;;;16.77;;
68507;SDS011;55510;49.560;19.090;2023-03-30T21:03:57;39.53;;;17.90;;
68507;SDS011;55510;49.560;19.090;2023-03-30T21:06:59;34.60;;;17.67;;
68507;SDS011;55510;49.560;19.090;2023-03-30T21:10:00;43.53;;;19.50;;
68507;SDS011;55510;49.560;19.090;2023-03-30T21:13:01;42.97;;;22.60;;
68507;SDS011;55510;49.560;19.090;2023-03-30T21:16:03;44.80;;;20.30;;
68507;SDS011;55510;49.560;19.090;2023-03-30T21:19:06;51.33;;;22.58;;
68507;SDS011;55510;49.560;19.090;2023-03-30T21:22:07;55.85;;;26.08;;
68507;SDS011;55510;49.560;19.090;2023-03-30T21:25:08;60.60;;;26.73;;
68507;SDS011;55510;49.560;19.090;2023-03-30T21:28:11;56.20;;;24.60;;
68507;SDS011;55510;49.560;19.090;2023-03-30T21:31:13;42.80;;;21.80;;
68507;SDS011;55510;49.560;19.090;2023-03-30T21:34:14;37.58;;;18.40;;
68507;SDS011;55510;49.560;19.090;2023-03-30T21:37:15;31.35;;;16.02;;
68507;SDS011;55510;49.560;19.090;2023-03-30T21:40:15;33.27;;;16.20;;
68507;SDS011;55510;49.560;19.090;2023-03-30T21:43:16;55.53;;;23.23;;
68507;SDS011;55510;49.560;19.090;2023-03-30T21:46:21;51.83;;;19.87;;
68507;SDS011;55510;49.560;19.090;2023-03-30T21:49:23;63.22;;;23.38;;
68507;SDS011;55510;49.560;19.090;2023-03-30T21:52:24;52.43;;;22.17;;
68507;SDS011;55510;49.560;19.090;2023-03-30T21:55:24;50.92;;;22.52;;
68507;SDS011;55510;49.560;19.090;2023-03-30T21:58:25;48.60;;;21.90;;
68507;SDS011;55510;49.560;19.090;2023-03-30T22:01:27;43.30;;;22.17;;
68507;SDS011;55510;49.560;19.090;2023-03-30T22:04:27;47.72;;;21.08;;
68507;SDS011;55510;49.560;19.090;2023-03-30T22:07:28;52.20;;;23.53;;
68507;SDS011;55510;49.560;19.090;2023-03-30T22:10:29;43.23;;;21.73;;
68507;SDS011;55510;49.560;19.090;2023-03-30T22:13:30;43.10;;;20.98;;
68507;SDS011;55510;49.560;19.090;2023-03-30T22:16:31;40.55;;;21.48;;
68507;SDS011;55510;49.560;19.090;2023-03-30T22:19:32;40.85;;;18.02;;
68507;SDS011;55510;49.560;19.090;2023-03-30T22:22:33;34.57;;;18.40;;
68507;SDS011;55510;49.560;19.090;2023-03-30T22:25:34;32.97;;;17.15;;
68507;SDS011;55510;49.560;19.090;2023-03-30T22:28:35;54.92;;;24.85;;
68507;SDS011;55510;49.560;19.090;2023-03-30T22:31:36;43.47;;;20.50;;
68507;SDS011;55510;49.560;19.090;2023-03-30T22:34:37;47.23;;;23.33;;
68507;SDS011;55510;49.560;19.090;2023-03-30T22:37:37;34.20;;;16.02;;
68507;SDS011;55510;49.560;19.090;2023-03-30T22:40:38;41.90;;;18.70;;
68507;SDS011;55510;49.560;19.090;2023-03-30T22:43:41;33.70;;;16.60;;
68507;SDS011;55510;49.560;19.090;2023-03-30T22:46:41;33.03;;;14.27;;
68507;SDS011;55510;49.560;19.090;2023-03-30T22:49:42;37.70;;;16.48;;
68507;SDS011;55510;49.560;19.090;2023-03-30T22:52:43;36.77;;;15.70;;
68507;SDS011;55510;49.560;19.090;2023-03-30T22:55:46;31.65;;;14.70;;
68507;SDS011;55510;49.560;19.090;2023-03-30T22:58:47;38.60;;;15.10;;
68507;SDS011;55510;49.560;19.090;2023-03-30T23:01:48;42.15;;;18.38;;
68507;SDS011;55510;49.560;19.090;2023-03-30T23:04:48;44.55;;;20.00;;
68507;SDS011;55510;49.560;19.090;2023-03-30T23:07:52;51.27;;;23.60;;
68507;SDS011;55510;49.560;19.090;2023-03-30T23:10:52;34.72;;;18.27;;
68507;SDS011;55510;49.560;19.090;2023-03-30T23:13:56;33.37;;;16.90;;
68507;SDS011;55510;49.560;19.090;2023-03-30T23:17:04;51.33;;;25.13;;
68507;SDS011;55510;49.560;19.090;2023-03-30T23:20:05;44.75;;;26.05;;
68507;SDS011;55510;49.560;19.090;2023-03-30T23:23:09;34.67;;;17.85;;
68507;SDS011;55510;49.560;19.090;2023-03-30T23:26:10;42.03;;;25.10;;
68507;SDS011;55510;49.560;19.090;2023-03-30T23:29:11;49.27;;;27.73;;
68507;SDS011;55510;49.560;19.090;2023-03-30T23:32:11;45.05;;;22.75;;
68507;SDS011;55510;49.560;19.090;2023-03-30T23:35:12;36.97;;;17.73;;
68507;SDS011;55510;49.560;19.090;2023-03-30T23:38:13;28.92;;;13.48;;
68507;SDS011;55510;49.560;19.090;2023-03-30T23:41:15;26.48;;;12.55;;
68507;SDS011;55510;49.560;19.090;2023-03-30T23:44:18;20.13;;;10.27;;
68507;SDS011;55510;49.560;19.090;2023-03-30T23:47:18;26.65;;;13.98;;
68507;SDS011;55510;49.560;19.090;2023-03-30T23:50:19;21.50;;;11.87;;
68507;SDS011;55510;49.560;19.090;2023-03-30T23:53:20;17.87;;;9.33;;
68507;SDS011;55510;49.560;19.090;2023-03-30T23:56:21;15.75;;;8.15;;
68507;SDS011;55510;49.560;19.090;2023-03-30T23:59:26;22.27;;;11.65;;
